• Join FlightAware (Why Join?)
  • Login
  • US Flag 
01:41AM EDT


 

Airport Tracker/Info


-or-


 

Live Flight TrackerFlight Track Log ✈ EGF2787 ✈ 19-Apr-2013 ✈ KLRD - KDFW

Flight Track Log - Related Links

Times and Time Zones

All times are in EDT time to prevent confusion due to time zone crossing. See the EGF2787 flight status page for this flight to view local times or setup timezone preferences in your user account.

Time Position Orientation Groundspeed Altitude Reporting Facility
EDT Latitude Longitude Course Direction KTS MPH feet Rate Location/Type
04:10PM 27.5736 -99.4567 22° Northeast 185 213 1,600  Level Houston Center
04:11PM 27.6336 -99.4142 32° Northeast 219 252 4,300 2,400 Climbing Houston Center
04:12PM 27.8018 -99.3264 18° North  Level FlightAware Approximate
04:12PM 27.7006 -99.4317 347° North 235 270 6,700  Level Houston Center
04:13PM 27.8936 -99.2920 18° North  Level FlightAware Approximate
04:13PM 27.7722 -99.4517 346° North 252 290 8,900  Level Houston Center
04:14PM 27.9806 -99.2450 28° Northeast  Level FlightAware Approximate
04:14PM 27.8503 -99.4689 349° North 267 307 10,900  Level Houston Center
04:15PM 28.0696 -99.1986 22° Northeast  Level FlightAware Approximate
04:15PM 27.9364 -99.4867 350° North 290 334 12,500  Level Houston Center
04:16PM 28.1603 -99.1564 22° Northeast  Level FlightAware Approximate
04:16PM 28.0286 -99.4889 359° North 325 374 14,000  Level Houston Center
04:18PM 28.1442 -99.4619 12° North 351 404 15,900 1,620 Climbing Houston Center
04:19PM 28.2433 -99.4378 12° North 360 414 17,400 1,320 Climbing Houston Center
04:20PM 28.3428 -99.4008 18° North 371 427 18,700 1,320 Climbing Houston Center
04:21PM 28.4433 -99.3628 18° North 379 436 20,200 960 Climbing Houston Center
04:22PM 28.5506 -99.3250 17° North 397 457 20,800 660 Climbing Houston Center
04:23PM 28.6653 -99.2803 19° North 428 493 21,600 1,020 Climbing Houston Center
04:24PM 28.8044 -99.2289 18° North 436 502 23,000 1,200 Climbing Houston Center
04:25PM 28.9206 -99.1861 18° North 438 504 24,200 1,140 Climbing Houston Center
04:26PM 29.0364 -99.1414 19° North 440 506 25,400 1,200 Climbing Houston Center
04:27PM 29.1636 -99.0939 18° North 435 501 26,800 1,260 Climbing Houston Center
04:28PM 29.2786 -99.0508 18° North 434 499 28,100 1,200 Climbing Houston Center
04:29PM 29.4033 -99.0042 18° North 436 502 29,400 1,140 Climbing Houston Center
04:30PM 29.5186 -98.9600 18° North 435 501 30,500 720 Climbing Houston Center
04:31PM 29.6458 -98.9122 18° North 443 510 31,000 240 Climbing Houston Center
04:32PM 29.7742 -98.8639 18° North 473 544 31,000  Level Houston Center
04:33PM 29.9047 -98.8128 19° North 491 565 31,000  Level Houston Center
04:34PM 30.0447 -98.7589 18° North 490 564 31,000  Level Houston Center
04:35PM 30.1750 -98.7078 19° North 491 565 31,000  Level Houston Center
04:36PM 30.3003 -98.6603 18° North 492 566 31,000  Level Houston Center
04:37PM 30.4311 -98.6100 18° North 490 564 31,000  Level Houston Center
04:38PM 30.5628 -98.5597 18° North 491 565 31,000  Level Houston Center
04:39PM 30.6961 -98.5092 18° North 496 571 31,000  Level Houston Center
04:40PM 30.8478 -98.4492 19° North 488 562 31,000  Level Houston Center
04:41PM 30.9783 -98.3992 18° North 486 559 31,000  Level Houston Center
04:42PM 31.0636 -98.3664 18° North 478 550 31,000  Level Fort Worth Center
04:43PM 31.1786 -98.3239 18° North 483 556 31,000 -600 Level Fort Worth Center
04:44PM 31.2933 -98.3300 357° North 429 494 29,800 -1,800 Descending Fort Worth Center
04:45PM 31.3892 -98.3697 341° North 385 443 27,500 -1,800 Descending Fort Worth Center
04:46PM 31.4850 -98.3806 354° North 349 402 26,200 -1,320 Descending Fort Worth Center
04:47PM 31.5775 -98.3156 31° Northeast 355 409 24,900 -1,500 Descending Fort Worth Center
04:48PM 31.6700 -98.2336 37° Northeast 374 430 23,200 -1,440 Descending Fort Worth Center
04:49PM 31.7019 -98.1167 72° East 363 418 22,100 -1,140 Descending Fort Worth Center
04:50PM 31.7381 -97.9972 70° East 369 425 21,000 -1,080 Descending Fort Worth Center
04:51PM 31.7822 -97.8900 64° Northeast 375 432 20,000 -1,080 Descending Fort Worth Center
04:52PM 31.8678 -97.9050 352° North 263 303 18,900 -1,080 Descending Fort Worth Center
04:53PM 31.9469 -97.9372 341° North 277 319 17,900 -900 Descending Fort Worth Center
04:54PM 32.0283 -97.9647 344° North 290 334 17,100 -660 Descending Fort Worth Center
04:55PM 32.1100 -97.9333 18° North 295 339 16,600 -1,080 Descending Fort Worth Center
04:56PM 32.1728 -97.8553 46° Northeast 310 357 15,000 -1,560 Descending Fort Worth Center
04:57PM 32.2336 -97.7867 44° Northeast 310 357 13,500 -1,680 Descending Fort Worth Center
04:58PM 32.2922 -97.7158 46° Northeast 298 343 11,700 -1,500 Descending Fort Worth Center
04:59PM 32.3508 -97.6519 43° Northeast 293 337 10,500 -1,440 Descending Fort Worth Center
05:00PM 32.4031 -97.5856 47° Northeast 275 316 8,900 -1,500 Descending Fort Worth Center
05:01PM 32.4556 -97.5242 45° Northeast 270 311 7,500 -1,140 Descending Fort Worth Center
05:02PM 32.4994 -97.4578 52° Northeast 258 297 6,700 -900 Descending Fort Worth Center
05:03PM 32.5244 -97.3839 68° East 253 291 5,800 -900 Descending Fort Worth Center
05:04PM 32.5536 -97.3025 67° East 253 291 4,900 -480 Descending Fort Worth Center
05:05PM 32.5578 -97.2139 87° East 253 291 4,900 -120 Level Fort Worth Center
05:06PM 32.5575 -97.1397 90° East 240 276 4,700 -540 Descending Fort Worth Center
05:07PM 32.5719 -97.0831 73° East 204 235 3,900 -900 Descending Fort Worth Center
05:08PM 32.6178 -97.0608 22° Northeast 156 180 3,000 -600 Descending Fort Worth Center
05:09PM 32.6500 -97.0500 16° North 169 194 3,000  Level Dallas / Fort Worth TRACON